createdAt,value
2022-10-12T00:02:46.984Z,100.00
2022-10-12T00:06:02.919Z,100.00
2022-10-12T00:09:10.807Z,100.00
2022-10-12T00:12:16.982Z,100.00
2022-10-12T00:15:23.474Z,100.00
2022-10-12T00:18:29.408Z,100.00
2022-10-12T00:21:35.527Z,100.00
2022-10-12T00:24:43.223Z,100.00
2022-10-12T00:27:49.569Z,100.00
2022-10-12T00:30:55.888Z,100.00
2022-10-12T00:34:03.586Z,100.00
2022-10-12T00:37:10.083Z,100.00
2022-10-12T00:40:17.944Z,100.00
2022-10-12T00:43:30.977Z,100.00
2022-10-12T00:46:40.778Z,100.00
2022-10-12T00:49:49.670Z,100.00
2022-10-12T00:53:01.058Z,100.00
2022-10-12T00:56:12.732Z,100.00
2022-10-12T00:59:24.214Z,100.00
2022-10-12T01:02:33.244Z,100.00
2022-10-12T01:05:41.758Z,100.00
2022-10-12T01:08:48.399Z,100.00
2022-10-12T01:11:57.838Z,100.00
2022-10-12T01:15:04.710Z,100.00
2022-10-12T01:18:16.833Z,100.00
2022-10-12T01:21:24.279Z,100.00
2022-10-12T01:24:46.007Z,100.00
2022-10-12T01:27:56.366Z,100.00
2022-10-12T01:31:09.695Z,100.00
2022-10-12T01:34:21.525Z,100.00
2022-10-12T01:37:36.556Z,100.00
2022-10-12T01:40:50.790Z,100.00
2022-10-12T01:43:56.742Z,100.00
2022-10-12T01:47:04.379Z,100.00
2022-10-12T01:50:13.885Z,100.00
2022-10-12T01:53:28.651Z,100.00
2022-10-12T01:56:45.597Z,100.00
2022-10-12T02:00:02.621Z,100.00
2022-10-12T02:03:16.778Z,100.00
2022-10-12T02:06:30.075Z,100.00
2022-10-12T02:09:38.584Z,100.00
2022-10-12T02:12:47.375Z,100.00
2022-10-12T02:15:55.388Z,100.00
2022-10-12T02:19:08.328Z,100.00
2022-10-12T02:22:18.031Z,100.00
2022-10-12T02:25:27.763Z,100.00
2022-10-12T02:28:38.415Z,100.00
2022-10-12T02:31:53.888Z,100.00
2022-10-12T02:35:06.934Z,100.00
2022-10-12T02:38:19.679Z,100.00
2022-10-12T02:41:30.726Z,100.00
2022-10-12T02:44:40.217Z,100.00
2022-10-12T02:47:48.906Z,100.00
2022-10-12T02:50:59.043Z,100.00
2022-10-12T02:54:05.307Z,100.00
2022-10-12T02:57:11.363Z,100.00
2022-10-12T03:00:19.096Z,100.00
2022-10-12T03:03:25.288Z,100.00
2022-10-12T03:06:32.988Z,100.00
2022-10-12T03:09:42.055Z,100.00
2022-10-12T03:12:50.369Z,100.00
2022-10-12T03:16:02.813Z,100.00
2022-10-12T03:19:09.229Z,100.00
2022-10-12T03:22:16.883Z,100.00
2022-10-12T03:25:23.093Z,100.00
2022-10-12T03:28:29.609Z,100.00
2022-10-12T03:31:35.896Z,100.00
2022-10-12T03:34:42.305Z,100.00
2022-10-12T03:37:50.306Z,100.00
2022-10-12T03:40:57.394Z,100.00
2022-10-12T03:44:03.794Z,100.00
2022-10-12T03:47:10.014Z,100.00
2022-10-12T03:50:16.331Z,100.00
2022-10-12T03:53:23.889Z,100.00
2022-10-12T03:56:29.916Z,100.00
2022-10-12T03:59:36.189Z,100.00
2022-10-12T04:02:42.563Z,100.00
2022-10-12T04:05:54.759Z,100.00
2022-10-12T04:09:02.563Z,100.00
2022-10-12T04:12:08.811Z,100.00
2022-10-12T04:15:15.535Z,100.00
2022-10-12T04:18:21.955Z,100.00
2022-10-12T04:21:32.130Z,100.00
2022-10-12T04:24:39.727Z,100.00
2022-10-12T04:27:45.704Z,100.00
2022-10-12T04:30:51.788Z,100.00
2022-10-12T04:33:58.055Z,100.00
2022-10-12T04:37:05.019Z,100.00
2022-10-12T04:40:13.379Z,100.00
2022-10-12T04:43:19.483Z,100.00
2022-10-12T04:46:25.659Z,100.00
2022-10-12T04:49:32.236Z,100.00
2022-10-12T04:52:38.270Z,100.00
2022-10-12T04:55:45.987Z,100.00
2022-10-12T04:58:52.526Z,100.00
2022-10-12T05:01:59.033Z,100.00
2022-10-12T05:05:05.303Z,100.00
2022-10-12T05:08:11.181Z,100.00
2022-10-12T05:11:19.026Z,100.00
2022-10-12T05:14:25.243Z,100.00
2022-10-12T05:17:31.640Z,100.00
2022-10-12T05:20:37.939Z,100.00
2022-10-12T05:23:44.404Z,100.00
2022-10-12T05:26:52.037Z,100.00
2022-10-12T05:29:58.303Z,100.00
2022-10-12T05:33:04.850Z,100.00
2022-10-12T05:36:11.250Z,100.00
2022-10-12T05:39:17.091Z,100.00
2022-10-12T05:42:24.490Z,100.00
2022-10-12T05:45:30.664Z,100.00
2022-10-12T05:48:37.093Z,100.00
2022-10-12T05:51:43.509Z,100.00
2022-10-12T05:54:50.165Z,100.00
2022-10-12T05:57:58.067Z,100.00
2022-10-12T06:01:08.402Z,100.00
2022-10-12T06:04:14.568Z,100.00
2022-10-12T06:07:20.771Z,100.00
2022-10-12T06:10:29.976Z,100.00
2022-10-12T06:13:37.635Z,100.00
2022-10-12T06:16:43.668Z,100.00
2022-10-12T06:19:50.026Z,100.00
2022-10-12T06:22:56.243Z,100.00
2022-10-12T06:26:02.656Z,100.00
2022-10-12T06:29:10.290Z,100.00
2022-10-12T06:32:16.603Z,100.00
2022-10-12T06:35:23.234Z,100.00
2022-10-12T06:38:29.738Z,100.00
2022-10-12T06:41:36.389Z,100.00
2022-10-12T06:44:44.057Z,100.00
2022-10-12T06:47:50.217Z,100.00
2022-10-12T06:50:56.499Z,100.00
2022-10-12T06:54:02.479Z,100.00
2022-10-12T06:57:08.873Z,100.00
2022-10-12T07:00:17.163Z,100.00
2022-10-12T07:03:23.379Z,100.00
2022-10-12T07:06:29.720Z,100.00
2022-10-12T07:09:36.523Z,100.00
2022-10-12T07:12:42.745Z,100.00
2022-10-12T07:15:52.146Z,100.00
2022-10-12T07:18:58.136Z,100.00
2022-10-12T07:22:04.196Z,100.00
2022-10-12T07:25:10.820Z,100.00
2022-10-12T07:28:17.431Z,100.00
2022-10-12T07:31:25.970Z,100.00
2022-10-12T07:34:32.467Z,100.00
2022-10-12T07:37:39.091Z,100.00
2022-10-12T07:40:45.836Z,100.00
2022-10-12T07:43:55.962Z,100.00
2022-10-12T07:47:03.446Z,100.00
2022-10-12T07:50:10.387Z,100.00
2022-10-12T07:53:16.654Z,100.00
2022-10-12T07:56:22.864Z,100.00
2022-10-12T07:59:29.240Z,100.00
2022-10-12T08:02:37.513Z,100.00
2022-10-12T08:05:43.820Z,100.00
2022-10-12T08:08:50.382Z,100.00
2022-10-12T08:11:57.357Z,100.00
2022-10-12T08:15:04.012Z,100.00
2022-10-12T08:18:11.676Z,100.00
2022-10-12T08:21:18.960Z,100.00
2022-10-12T08:24:25.031Z,100.00
2022-10-12T08:27:32.385Z,100.00
2022-10-12T08:30:40.465Z,100.00
2022-10-12T08:33:48.140Z,100.00
2022-10-12T08:36:54.143Z,100.00
2022-10-12T08:40:03.274Z,100.00
2022-10-12T08:43:23.052Z,100.00
2022-10-12T08:46:30.480Z,100.00
2022-10-12T08:49:40.427Z,100.00
2022-10-12T08:52:53.963Z,100.00
2022-10-12T08:56:01.527Z,100.00
2022-10-12T08:59:13.112Z,100.00
2022-10-12T09:02:36.224Z,100.00
2022-10-12T09:05:51.762Z,100.00
2022-10-12T09:09:06.484Z,100.00
2022-10-12T09:12:29.700Z,100.00
2022-10-12T09:15:40.449Z,100.00
2022-10-12T09:18:52.503Z,100.00
2022-10-12T09:22:00.128Z,100.00
2022-10-12T09:25:13.172Z,100.00
2022-10-12T09:28:27.073Z,100.00
2022-10-12T09:31:52.524Z,100.00
2022-10-12T09:35:00.579Z,100.00
2022-10-12T09:38:09.377Z,98.21
2022-10-12T09:41:21.963Z,96.59
2022-10-12T09:44:32.819Z,100.00
2022-10-12T09:47:39.308Z,100.00
2022-10-12T09:50:49.639Z,96.10
2022-10-12T09:54:03.358Z,91.85
2022-10-12T09:57:10.105Z,88.41
2022-10-12T10:00:26.048Z,93.00
2022-10-12T10:03:32.604Z,88.96
2022-10-12T10:06:40.232Z,84.44
2022-10-12T10:09:48.372Z,89.55
2022-10-12T10:12:55.827Z,90.90
2022-10-12T10:16:07.831Z,88.16
2022-10-12T10:19:19.559Z,87.79
2022-10-12T10:22:26.056Z,87.63
2022-10-12T10:25:35.024Z,86.21
2022-10-12T10:28:42.986Z,89.74
2022-10-12T10:31:51.905Z,84.79
2022-10-12T10:35:18.683Z,87.66
2022-10-12T10:38:25.516Z,87.46
2022-10-12T10:41:37.099Z,83.08
2022-10-12T10:44:51.159Z,85.45
2022-10-12T10:48:01.545Z,86.35
2022-10-12T10:51:08.776Z,87.00
2022-10-12T10:54:16.444Z,84.76
2022-10-12T10:57:26.330Z,82.15
2022-10-12T11:00:40.055Z,85.32
2022-10-12T11:03:54.734Z,82.16
2022-10-12T11:07:06.746Z,84.19
2022-10-12T11:10:26.272Z,83.16
2022-10-12T11:13:37.267Z,82.30
2022-10-12T11:16:47.448Z,82.32
2022-10-12T11:20:03.124Z,84.77
2022-10-12T11:23:20.658Z,84.28
2022-10-12T11:26:30.721Z,83.75
2022-10-12T11:29:38.989Z,82.75
2022-10-12T11:32:48.253Z,84.74
2022-10-12T11:35:58.369Z,85.99
2022-10-12T11:39:07.795Z,84.85
2022-10-12T11:42:22.497Z,83.67
2022-10-12T11:45:33.092Z,83.77
2022-10-12T11:48:47.795Z,84.57
2022-10-12T11:51:58.468Z,87.11
2022-10-12T11:55:25.203Z,88.45
2022-10-12T11:58:55.830Z,85.17
2022-10-12T12:02:14.493Z,85.49
2022-10-12T12:05:21.096Z,85.95
2022-10-12T12:08:59.921Z,83.88
2022-10-12T12:12:18.862Z,84.49
2022-10-12T12:15:25.127Z,81.77
2022-10-12T12:18:34.177Z,80.03
2022-10-12T12:22:13.207Z,81.01
2022-10-12T12:25:27.136Z,79.37
2022-10-12T12:28:34.660Z,82.63
2022-10-12T12:31:41.161Z,83.33
2022-10-12T12:35:00.085Z,80.36
2022-10-12T12:38:25.491Z,81.64
2022-10-12T12:41:55.069Z,83.19
2022-10-12T12:45:36.962Z,85.75
2022-10-12T12:49:03.272Z,83.65
2022-10-12T12:52:18.045Z,83.00
2022-10-12T12:55:50.349Z,83.13
2022-10-12T12:59:22.139Z,81.16
2022-10-12T13:03:01.558Z,79.22
2022-10-12T13:06:49.215Z,80.63
2022-10-12T13:10:28.193Z,78.04
2022-10-12T13:13:51.296Z,77.73
2022-10-12T13:17:31.710Z,77.41
2022-10-12T13:20:38.966Z,78.19
2022-10-12T13:23:48.108Z,77.75
2022-10-12T13:27:01.568Z,80.75
2022-10-12T13:30:15.092Z,80.89
2022-10-12T13:33:32.103Z,81.38
2022-10-12T13:36:57.591Z,80.01
2022-10-12T13:40:04.122Z,82.02
2022-10-12T13:43:30.613Z,79.40
2022-10-12T13:46:41.971Z,81.54
2022-10-12T13:49:48.321Z,83.77
2022-10-12T13:52:55.564Z,81.45
2022-10-12T13:56:05.358Z,82.46
2022-10-12T13:59:19.207Z,82.37
2022-10-12T14:02:27.691Z,84.62
2022-10-12T14:05:35.294Z,81.92
2022-10-12T14:08:41.803Z,80.32
2022-10-12T14:11:49.204Z,82.51
2022-10-12T14:14:57.402Z,82.33
2022-10-12T14:18:04.436Z,83.30
2022-10-12T14:21:23.719Z,81.85
2022-10-12T14:24:30.395Z,81.99
2022-10-12T14:27:39.331Z,80.76
2022-10-12T14:30:54.244Z,81.17
2022-10-12T14:34:33.658Z,81.03
2022-10-12T14:37:40.526Z,86.97
2022-10-12T14:40:47.181Z,86.01
2022-10-12T14:44:10.331Z,85.26
2022-10-12T14:47:23.106Z,85.71
2022-10-12T14:50:31.601Z,83.64
2022-10-12T14:53:37.935Z,84.96
2022-10-12T14:56:44.575Z,87.20
2022-10-12T14:59:51.208Z,88.75
2022-10-12T15:02:59.032Z,91.61
2022-10-12T15:06:04.973Z,92.31
2022-10-12T15:09:11.365Z,96.71
2022-10-12T15:12:19.359Z,100.00
2022-10-12T15:15:31.991Z,95.62
2022-10-12T15:18:39.615Z,100.00
2022-10-12T15:21:45.822Z,100.00
2022-10-12T15:24:53.250Z,100.00
2022-10-12T15:27:59.391Z,100.00
2022-10-12T15:31:17.618Z,100.00
2022-10-12T15:34:25.897Z,100.00
2022-10-12T15:37:32.215Z,100.00
2022-10-12T15:40:40.438Z,100.00
2022-10-12T15:43:47.047Z,100.00
2022-10-12T15:46:54.423Z,100.00
2022-10-12T15:50:02.125Z,100.00
2022-10-12T15:53:10.334Z,100.00
2022-10-12T15:56:17.499Z,100.00
2022-10-12T15:59:24.143Z,100.00
2022-10-12T16:02:30.230Z,100.00
2022-10-12T16:05:38.679Z,100.00
2022-10-12T16:08:45.254Z,100.00
2022-10-12T16:11:51.887Z,100.00
2022-10-12T16:14:58.429Z,100.00
2022-10-12T16:18:06.387Z,100.00
2022-10-12T16:21:14.450Z,100.00
2022-10-12T16:24:21.130Z,100.00
2022-10-12T16:27:27.666Z,100.00
2022-10-12T16:30:34.418Z,100.00
2022-10-12T16:33:41.531Z,100.00
2022-10-12T16:36:49.123Z,100.00
2022-10-12T16:39:55.383Z,100.00
2022-10-12T16:43:01.714Z,100.00
2022-10-12T16:46:08.723Z,100.00
2022-10-12T16:49:14.663Z,100.00
2022-10-12T16:52:24.617Z,100.00
2022-10-12T16:55:30.894Z,100.00
2022-10-12T16:58:37.354Z,100.00
2022-10-12T17:01:43.373Z,100.00
2022-10-12T17:04:49.831Z,100.00
2022-10-12T17:07:57.669Z,100.00
2022-10-12T17:11:06.990Z,100.00
2022-10-12T17:14:16.735Z,100.00
2022-10-12T17:17:22.776Z,100.00
2022-10-12T17:20:29.280Z,100.00
2022-10-12T17:23:37.238Z,100.00
2022-10-12T17:26:43.667Z,100.00
2022-10-12T17:29:49.882Z,100.00
2022-10-12T17:32:56.225Z,100.00
2022-10-12T17:36:07.321Z,100.00
2022-10-12T17:39:15.722Z,100.00
2022-10-12T17:42:23.171Z,100.00
2022-10-12T17:45:29.799Z,100.00
2022-10-12T17:48:35.891Z,100.00
2022-10-12T17:51:42.910Z,100.00
2022-10-12T17:54:50.739Z,100.00
2022-10-12T17:57:56.814Z,100.00
2022-10-12T18:01:06.301Z,100.00
2022-10-12T18:04:13.963Z,100.00
2022-10-12T18:07:20.425Z,100.00
2022-10-12T18:10:28.693Z,100.00
2022-10-12T18:13:36.219Z,100.00
2022-10-12T18:16:42.538Z,100.00
2022-10-12T18:19:48.815Z,100.00
2022-10-12T18:22:55.406Z,100.00
2022-10-12T18:26:05.463Z,100.00
2022-10-12T18:29:11.875Z,100.00
2022-10-12T18:32:18.393Z,100.00
2022-10-12T18:35:25.035Z,100.00
2022-10-12T18:38:31.319Z,100.00
2022-10-12T18:41:39.223Z,100.00
2022-10-12T18:44:45.649Z,100.00
2022-10-12T18:47:52.982Z,100.00
2022-10-12T18:51:05.205Z,100.00
2022-10-12T18:54:14.195Z,100.00
2022-10-12T18:57:21.749Z,100.00
2022-10-12T19:00:27.971Z,100.00
2022-10-12T19:03:34.070Z,100.00
2022-10-12T19:06:42.722Z,100.00
2022-10-12T19:09:48.704Z,100.00
2022-10-12T19:12:56.335Z,100.00
2022-10-12T19:16:08.549Z,100.00
2022-10-12T19:19:20.751Z,100.00
2022-10-12T19:22:27.385Z,100.00
2022-10-12T19:25:33.467Z,100.00
2022-10-12T19:28:41.375Z,100.00
2022-10-12T19:31:50.149Z,100.00
2022-10-12T19:34:56.238Z,100.00
2022-10-12T19:38:02.814Z,100.00
2022-10-12T19:41:10.126Z,100.00
2022-10-12T19:44:19.361Z,100.00
2022-10-12T19:47:25.259Z,100.00
2022-10-12T19:50:31.955Z,100.00
2022-10-12T19:53:38.389Z,100.00
2022-10-12T19:56:44.774Z,100.00
2022-10-12T19:59:52.493Z,100.00
2022-10-12T20:02:58.418Z,100.00
2022-10-12T20:06:09.130Z,100.00
2022-10-12T20:09:15.477Z,100.00
2022-10-12T20:12:21.865Z,100.00
2022-10-12T20:15:31.263Z,100.00
2022-10-12T20:18:37.911Z,100.00
2022-10-12T20:21:44.159Z,100.00
2022-10-12T20:24:50.381Z,100.00
2022-10-12T20:27:57.127Z,100.00
2022-10-12T20:31:06.507Z,100.00
2022-10-12T20:34:13.032Z,100.00
2022-10-12T20:37:21.566Z,100.00
2022-10-12T20:40:28.035Z,100.00
2022-10-12T20:43:34.203Z,100.00
2022-10-12T20:46:44.567Z,100.00
2022-10-12T20:49:50.422Z,100.00
2022-10-12T20:52:56.742Z,100.00
2022-10-12T20:56:06.969Z,100.00
2022-10-12T20:59:13.202Z,100.00
2022-10-12T21:02:21.604Z,100.00
2022-10-12T21:05:28.166Z,100.00
2022-10-12T21:08:34.341Z,100.00
2022-10-12T21:11:40.855Z,100.00
2022-10-12T21:14:46.944Z,100.00
2022-10-12T21:17:54.535Z,100.00
2022-10-12T21:21:02.482Z,100.00
2022-10-12T21:24:10.557Z,100.00
2022-10-12T21:27:16.627Z,100.00
2022-10-12T21:30:23.153Z,100.00
2022-10-12T21:33:30.864Z,100.00
2022-10-12T21:36:37.808Z,100.00
2022-10-12T21:39:43.986Z,100.00
2022-10-12T21:42:50.308Z,100.00
2022-10-12T21:45:56.732Z,100.00
2022-10-12T21:49:06.673Z,100.00
2022-10-12T21:52:12.669Z,100.00
2022-10-12T21:55:19.197Z,100.00
2022-10-12T21:58:25.553Z,100.00
2022-10-12T22:01:34.774Z,100.00
2022-10-12T22:04:42.462Z,100.00
2022-10-12T22:07:48.703Z,100.00
2022-10-12T22:10:55.222Z,100.00
2022-10-12T22:14:03.338Z,100.00
2022-10-12T22:17:09.601Z,100.00
2022-10-12T22:20:17.636Z,100.00
2022-10-12T22:23:23.814Z,100.00
2022-10-12T22:26:30.331Z,100.00
2022-10-12T22:29:36.771Z,100.00
2022-10-12T22:32:42.792Z,100.00
2022-10-12T22:35:58.106Z,100.00
2022-10-12T22:39:06.059Z,100.00
2022-10-12T22:42:12.483Z,100.00
2022-10-12T22:45:18.799Z,100.00
2022-10-12T22:48:25.824Z,100.00
2022-10-12T22:51:34.707Z,100.00
2022-10-12T22:54:40.707Z,100.00
2022-10-12T22:57:47.073Z,100.00
2022-10-12T23:00:53.312Z,100.00
2022-10-12T23:03:59.138Z,100.00
2022-10-12T23:07:06.862Z,100.00
2022-10-12T23:10:12.970Z,100.00
2022-10-12T23:13:19.214Z,100.00
2022-10-12T23:16:27.906Z,100.00
2022-10-12T23:19:33.915Z,100.00
2022-10-12T23:22:41.608Z,100.00
2022-10-12T23:25:47.844Z,100.00
2022-10-12T23:28:55.304Z,100.00
2022-10-12T23:32:01.761Z,100.00
2022-10-12T23:35:08.751Z,100.00
2022-10-12T23:38:16.620Z,100.00
2022-10-12T23:41:23.139Z,100.00
2022-10-12T23:44:29.576Z,100.00
2022-10-12T23:47:36.046Z,100.00
2022-10-12T23:50:43.118Z,100.00
2022-10-12T23:53:50.648Z,100.00
2022-10-12T23:56:56.624Z,100.00
